Time,TemperatureF,DewpointF,PressureIn,WindDirection,WindDirectionDegrees,WindSpeedMPH,WindSpeedGustMPH,Humidity,HourlyPrecipIn,Conditions,Clouds,dailyrainin,SoftwareType,DateUTC
2013-05-26 00:33:00,51.0,30.0,30.01,North,-999,-999.0,-999.0,45,-99.99,,,-99.99,,2013-05-26 04:33:00,
2013-05-26 00:42:00,51.0,30.0,30.01,North,-999,-999.0,-999.0,45,-99.99,,,-99.99,,2013-05-26 04:42:00,
2013-05-26 00:52:00,52.0,31.0,30.01,NNE,17,-999.0,3.0,44,-99.99,,,-99.99,,2013-05-26 04:52:00,
2013-05-26 01:22:00,52.0,31.0,30.01,NNE,17,-999.0,3.0,44,-99.99,,,-99.99,,2013-05-26 05:22:00,
2013-05-26 01:32:00,52.0,31.0,30.01,NNE,17,-999.0,3.0,44,-99.99,,,-99.99,,2013-05-26 05:32:00,
2013-05-26 01:42:00,52.0,31.0,30.01,NNE,17,-999.0,3.0,44,-99.99,,,-99.99,,2013-05-26 05:42:00,
2013-05-26 01:52:00,49.0,34.0,30.01,NNE,17,-999.0,3.0,57,-99.99,,,-99.99,,2013-05-26 05:52:00,
2013-05-26 02:22:00,49.0,34.0,30.01,NNE,17,-999.0,3.0,57,-99.99,,,-99.99,,2013-05-26 06:22:00,
2013-05-26 02:32:00,49.0,34.0,30.01,NNE,17,-999.0,3.0,57,-99.99,,,-99.99,,2013-05-26 06:32:00,
2013-05-26 02:42:00,49.0,34.0,30.01,NNE,17,-999.0,3.0,57,-99.99,,,-99.99,,2013-05-26 06:42:00,
2013-05-26 02:52:00,47.0,36.0,30.02,NW,312,-999.0,-999.0,63,-99.99,,,-99.99,,2013-05-26 06:52:00,
2013-05-26 03:22:00,47.0,36.0,30.02,NW,312,-999.0,-999.0,63,-99.99,,,-99.99,,2013-05-26 07:22:00,
2013-05-26 03:32:00,47.0,36.0,30.02,NW,312,-999.0,-999.0,63,-99.99,,,-99.99,,2013-05-26 07:32:00,
2013-05-26 03:42:00,47.0,36.0,30.02,NW,312,-999.0,-999.0,63,-99.99,,,-99.99,,2013-05-26 07:42:00,
2013-05-26 03:52:00,46.0,36.0,30.02,NW,312,-999.0,-999.0,68,-99.99,,,-99.99,,2013-05-26 07:52:00,
2013-05-26 04:32:00,46.0,36.0,30.02,NW,312,-999.0,-999.0,68,-99.99,,,-99.99,,2013-05-26 08:32:00,
2013-05-26 04:42:00,46.0,36.0,30.02,NW,312,-999.0,-999.0,68,-99.99,,,-99.99,,2013-05-26 08:42:00,
2013-05-26 04:52:00,45.0,36.0,30.03,NNW,346,-999.0,-999.0,69,-99.99,,,-99.99,,2013-05-26 08:52:00,
2013-05-26 05:22:00,45.0,36.0,30.03,NNW,346,-999.0,-999.0,69,-99.99,,,-99.99,,2013-05-26 09:22:00,
2013-05-26 05:33:00,45.0,36.0,30.03,NNW,346,-999.0,-999.0,69,-99.99,,,-99.99,,2013-05-26 09:33:00,
2013-05-26 05:43:00,45.0,36.0,30.03,NNW,346,-999.0,-999.0,69,-99.99,,,-99.99,,2013-05-26 09:43:00,
2013-05-26 05:52:00,44.0,36.0,30.05,NNW,346,-999.0,-999.0,73,-99.99,,,-99.99,,2013-05-26 09:52:00,
2013-05-26 06:23:00,44.0,36.0,30.05,NNW,346,-999.0,-999.0,73,-99.99,,,-99.99,,2013-05-26 10:23:00,
2013-05-26 06:33:00,44.0,36.0,30.05,NNW,346,-999.0,-999.0,73,-99.99,,,-99.99,,2013-05-26 10:33:00,
2013-05-26 06:42:00,44.0,36.0,30.05,NNW,346,-999.0,-999.0,73,-99.99,,,-99.99,,2013-05-26 10:42:00,
2013-05-26 06:52:00,47.0,39.0,30.06,NNW,346,-999.0,-999.0,73,-99.99,,,-99.99,,2013-05-26 10:52:00,
2013-05-26 07:22:00,47.0,39.0,30.06,NNW,346,-999.0,-999.0,73,-99.99,,,-99.99,,2013-05-26 11:22:00,
2013-05-26 07:32:00,47.0,39.0,30.06,NNW,346,-999.0,-999.0,73,-99.99,,,-99.99,,2013-05-26 11:32:00,
2013-05-26 07:42:00,47.0,39.0,30.06,NNW,346,-999.0,-999.0,73,-99.99,,,-99.99,,2013-05-26 11:42:00,
2013-05-26 07:52:00,52.0,38.0,30.07,North,9,-999.0,3.0,59,-99.99,,,-99.99,,2013-05-26 11:52:00,
2013-05-26 08:22:00,52.0,38.0,30.07,North,9,-999.0,3.0,59,-99.99,,,-99.99,,2013-05-26 12:22:00,
2013-05-26 08:32:00,52.0,38.0,30.07,North,9,-999.0,3.0,59,-99.99,,,-99.99,,2013-05-26 12:32:00,
2013-05-26 08:42:00,52.0,38.0,30.07,North,9,-999.0,3.0,59,-99.99,,,-99.99,,2013-05-26 12:42:00,
2013-05-26 08:52:00,55.0,35.0,30.07,NNW,331,2.0,3.0,47,-99.99,,,-99.99,,2013-05-26 12:52:00,
2013-05-26 09:22:00,55.0,35.0,30.07,NNW,331,2.0,3.0,47,-99.99,,,-99.99,,2013-05-26 13:22:00,
2013-05-26 09:32:00,55.0,35.0,30.07,NNW,331,2.0,3.0,47,-99.99,,,-99.99,,2013-05-26 13:32:00,
2013-05-26 09:42:00,55.0,35.0,30.07,NNW,331,2.0,3.0,47,-99.99,,,-99.99,,2013-05-26 13:42:00,
2013-05-26 09:52:00,58.0,33.0,30.07,NNE,24,-999.0,-999.0,38,-99.99,,,-99.99,,2013-05-26 13:52:00,
2013-05-26 10:22:00,58.0,33.0,30.07,NNE,24,-999.0,-999.0,38,-99.99,,,-99.99,,2013-05-26 14:22:00,
2013-05-26 10:32:00,58.0,33.0,30.07,NNE,24,-999.0,-999.0,38,-99.99,,,-99.99,,2013-05-26 14:32:00,
2013-05-26 10:42:00,58.0,33.0,30.07,NNE,24,-999.0,-999.0,38,-99.99,,,-99.99,,2013-05-26 14:42:00,
2013-05-26 10:52:00,61.0,29.0,30.06,WNW,283,-999.0,22.0,31,-99.99,,,-99.99,,2013-05-26 14:52:00,
2013-05-26 11:33:00,61.0,29.0,30.06,WNW,283,-999.0,22.0,31,-99.99,,,-99.99,,2013-05-26 15:33:00,
2013-05-26 11:43:00,61.0,29.0,30.06,WNW,283,-999.0,22.0,31,-99.99,,,-99.99,,2013-05-26 15:43:00,
2013-05-26 11:52:00,64.0,28.0,30.05,NNW,348,3.0,8.0,26,-99.99,,,-99.99,,2013-05-26 15:52:00,
2013-05-26 12:33:00,64.0,28.0,30.05,NNW,348,3.0,8.0,26,-99.99,,,-99.99,,2013-05-26 16:33:00,
2013-05-26 12:42:00,64.0,28.0,30.05,NNW,348,3.0,8.0,26,-99.99,,,-99.99,,2013-05-26 16:42:00,
2013-05-26 12:52:00,64.0,26.0,30.05,North,-999,-999.0,3.0,23,-99.99,,,-99.99,,2013-05-26 16:52:00,
2013-05-26 13:32:00,64.0,26.0,30.05,North,-999,-999.0,3.0,23,-99.99,,,-99.99,,2013-05-26 17:32:00,
2013-05-26 13:42:00,64.0,26.0,30.05,North,-999,-999.0,3.0,23,-99.99,,,-99.99,,2013-05-26 17:42:00,
2013-05-26 13:52:00,67.0,26.0,30.04,North,351,-999.0,3.0,21,-99.99,,,-99.99,,2013-05-26 17:52:00,
2013-05-26 14:22:00,67.0,26.0,30.04,North,351,-999.0,3.0,21,-99.99,,,-99.99,,2013-05-26 18:22:00,
2013-05-26 14:32:00,67.0,26.0,30.04,North,351,-999.0,3.0,21,-99.99,,,-99.99,,2013-05-26 18:32:00,
2013-05-26 14:42:00,67.0,26.0,30.04,North,351,-999.0,3.0,21,-99.99,,,-99.99,,2013-05-26 18:42:00,
2013-05-26 14:52:00,68.0,25.0,30.03,North,9,-999.0,5.0,20,-99.99,,,-99.99,,2013-05-26 18:52:00,
2013-05-26 15:22:00,68.0,25.0,30.03,North,9,-999.0,5.0,20,-99.99,,,-99.99,,2013-05-26 19:22:00,
2013-05-26 15:32:00,68.0,25.0,30.03,North,9,-999.0,5.0,20,-99.99,,,-99.99,,2013-05-26 19:32:00,
2013-05-26 15:42:00,68.0,25.0,30.03,North,9,-999.0,5.0,20,-99.99,,,-99.99,,2013-05-26 19:42:00,
2013-05-26 15:52:00,69.0,23.0,30.02,NNE,16,-999.0,16.0,18,-99.99,,,-99.99,,2013-05-26 19:52:00,
2013-05-26 16:22:00,69.0,23.0,30.02,NNE,16,-999.0,16.0,18,-99.99,,,-99.99,,2013-05-26 20:22:00,
2013-05-26 16:32:00,69.0,23.0,30.02,NNE,16,-999.0,16.0,18,-99.99,,,-99.99,,2013-05-26 20:32:00,
2013-05-26 16:42:00,69.0,23.0,30.02,NNE,16,-999.0,16.0,18,-99.99,,,-99.99,,2013-05-26 20:42:00,
2013-05-26 16:52:00,69.0,22.0,30.03,NNE,33,-999.0,20.0,17,-99.99,,,-99.99,,2013-05-26 20:52:00,
2013-05-26 17:33:00,69.0,22.0,30.03,NNE,33,-999.0,20.0,17,-99.99,,,-99.99,,2013-05-26 21:33:00,
2013-05-26 17:43:00,69.0,22.0,30.03,NNE,33,-999.0,20.0,17,-99.99,,,-99.99,,2013-05-26 21:43:00,
2013-05-26 17:52:00,68.0,22.0,30.03,NE,44,-999.0,3.0,17,-99.99,,,-99.99,,2013-05-26 21:52:00,
2013-05-26 18:23:00,68.0,22.0,30.03,NE,44,-999.0,3.0,17,-99.99,,,-99.99,,2013-05-26 22:23:00,
2013-05-26 18:33:00,68.0,22.0,30.03,NE,44,-999.0,3.0,17,-99.99,,,-99.99,,2013-05-26 22:33:00,
2013-05-26 18:42:00,68.0,22.0,30.03,NE,44,-999.0,3.0,17,-99.99,,,-99.99,,2013-05-26 22:42:00,
2013-05-26 18:52:00,67.0,22.0,30.06,NNE,26,-999.0,-999.0,18,-99.99,,,-99.99,,2013-05-26 22:52:00,
2013-05-26 19:22:00,67.0,22.0,30.06,NNE,26,-999.0,-999.0,18,-99.99,,,-99.99,,2013-05-26 23:22:00,
2013-05-26 19:32:00,67.0,22.0,30.06,NNE,26,-999.0,-999.0,18,-99.99,,,-99.99,,2013-05-26 23:32:00,
2013-05-26 19:43:00,67.0,22.0,30.06,NNE,26,-999.0,-999.0,18,-99.99,,,-99.99,,2013-05-26 23:43:00,
2013-05-26 19:52:00,63.0,27.0,30.08,NNE,24,-999.0,-999.0,26,-99.99,,,-99.99,,2013-05-26 23:52:00,
2013-05-26 20:22:00,63.0,27.0,30.08,NNE,24,-999.0,-999.0,26,-99.99,,,-99.99,,2013-05-27 00:22:00,
2013-05-26 20:32:00,63.0,27.0,30.08,NNE,24,-999.0,-999.0,26,-99.99,,,-99.99,,2013-05-27 00:32:00,
2013-05-26 20:42:00,63.0,27.0,30.08,NNE,24,-999.0,-999.0,26,-99.99,,,-99.99,,2013-05-27 00:42:00,
2013-05-26 20:52:00,58.0,28.0,30.11,NNE,24,-999.0,-999.0,32,-99.99,,,-99.99,,2013-05-27 00:52:00,
2013-05-26 21:22:00,58.0,28.0,30.11,NNE,24,-999.0,-999.0,32,-99.99,,,-99.99,,2013-05-27 01:22:00,
2013-05-26 21:32:00,58.0,28.0,30.11,NNE,24,-999.0,-999.0,32,-99.99,,,-99.99,,2013-05-27 01:32:00,
2013-05-26 21:42:00,58.0,28.0,30.11,NNE,24,-999.0,-999.0,32,-99.99,,,-99.99,,2013-05-27 01:42:00,
2013-05-26 21:52:00,51.0,30.0,30.14,NNE,24,-999.0,-999.0,44,-99.99,,,-99.99,,2013-05-27 01:52:00,
2013-05-26 22:22:00,51.0,30.0,30.14,NNE,24,-999.0,-999.0,44,-99.99,,,-99.99,,2013-05-27 02:22:00,
2013-05-26 22:32:00,51.0,30.0,30.14,NNE,24,-999.0,-999.0,44,-99.99,,,-99.99,,2013-05-27 02:32:00,
2013-05-26 22:42:00,51.0,30.0,30.14,NNE,24,-999.0,-999.0,44,-99.99,,,-99.99,,2013-05-27 02:42:00,
2013-05-26 22:52:00,48.0,32.0,30.16,NNE,24,-999.0,-999.0,53,-99.99,,,-99.99,,2013-05-27 02:52:00,
2013-05-26 23:33:00,48.0,32.0,30.16,NNE,24,-999.0,-999.0,53,-99.99,,,-99.99,,2013-05-27 03:33:00,
2013-05-26 23:43:00,48.0,32.0,30.16,NNE,24,-999.0,-999.0,53,-99.99,,,-99.99,,2013-05-27 03:43:00,
2013-05-26 23:52:00,48.0,34.0,30.18,NNE,24,-999.0,-999.0,58,-99.99,,,-99.99,,2013-05-27 03:52:00,